Terminal Aerodrome Forecast
Issued by NWS Twin Cities, MN

Home | Current Version | Previous Version | Text Only | Print | Product List | Glossary Off
Versions: 1 2 3 4 5 6 7 8 9 10 11 12 13 14 15 16 17 18 19 20 21 22 23 24 25 26

000
FTUS43 KMPX 280500
TAFMSP
TAF
KMSP 280527Z 2806/2912 27008KT P6SM SCT050 BKN120
     FM281200 27012KT P6SM BKN100
     FM281500 27014G20KT P6SM BKN020 OVC040
     FM282100 28017G24KT P6SM BKN030 OVC050
     FM290100 28015KT P6SM FEW030 OVC050=

USA.gov is the U.S. government's official web portal to all federal, state and local government web resources and services.